Tiempo atmosférico en la estación meteorológica de Bilbao Aeropuerto, Bizkaia (42 m.)



Fecha
DESCASC
Temp. máxima en grados centígrados (hora)
DESCASC
Temp. mínima en grados centígrados (hora)
DESCASC
Temp. media en grados centígrados
DESCASC
Racha de viento máxima en m/sg (hora)
DESCASC
Velocidad máxima media en intervalos de 10 minutos(hora)
DESCASC
Precipitaciones diarias en mm
DESCASC
Precipitaciones de 00:00 a 06:00 en mm
DESCASC
Precipitaciones de 06:00 a 12:00 en mm
DESCASC
Precipitaciones de 12:00 a 18:00 en mm
DESCASC
Precipitaciones de 18:00 a 24:00 en mm
DESCASC
05-04-2020 24.4 (17:40) 14.2 (06:40) 19.3 17.5 (11:20) 10.83 (03:50) 0 0 0 0 0
04-04-2020 24.2 (16:30) 4.8 (06:10) 14.5 15 (23:30) 8.61 (22:40) 0 0 0 0 0
03-04-2020 15.3 (15:20) 2.4 (08:00) 8.9 9.17 (17:30) 5.56 (17:40) -- 0 -- -- 0
02-04-2020 15.1 (15:30) 6.9 (00:00) 11 8.89 (15:40) 6.11 (15:50) 0.6 0 0.6 0 0
01-04-2020 18.2 (16:50) 6.4 (00:00) 12.3 15 (12:50) 8.33 (12:50) 1.8 0 1.7 0 0.1
31-03-2020 8.5 (15:30) 1.4 (00:00) 4.9 5.83 (17:00) 4.17 (17:00) 2.3 0 0.1 2 0.2
30-03-2020 7.8 (00:00) 3 (00:00) 5.4 12.78 (06:20) 8.89 (06:20) 6.7 0.7 1.4 3.4 1.2
29-03-2020 14.8 (14:20) 3.3 (00:00) 9.1 9.17 (20:50) 6.11 (14:40) 0.7 0 0 0.7 0
28-03-2020 17.5 (14:30) 2.6 (00:00) 10 9.17 (14:30) 5.56 (13:30) 0 0 0 0 0
27-03-2020 15.2 (14:10) 1.2 (00:00) 8.2 8.89 (13:40) 5.83 (16:10) 0 0 0 0 0
26-03-2020 13.4 (15:00) 6.1 (00:00) 9.7 12.78 (10:40) 8.61 (10:20) 0 0 0 0 0
25-03-2020 15.6 (13:30) 5.7 (00:00) 10.7 10.28 (13:50) 6.67 (17:00) 0 0 0 0 0
24-03-2020 -- (--) -- (--) -- -- (--) -- (--) -- -- 0 0 0
23-03-2020 -- (--) -- (--) -- -- (--) -- (--) -- 0 0 0 --
22-03-2020 16.4 (14:20) 9 (02:30) 12.7 8.33 (17:40) 5.83 (16:30) 0 0 0 0 0
21-03-2020 21.8 (15:10) 12 (00:00) 16.9 11.39 (09:20) 6.94 (10:00) 0 0 0 0 0
20-03-2020 20.4 (14:10) 13.4 (00:00) 16.9 13.33 (16:30) 8.61 (14:20) 0 0 0 0 0
19-03-2020 24.3 (15:30) 8.8 (00:00) 16.5 7.78 (14:00) 5.28 (16:10) 0 0 0 0 0
18-03-2020 17.3 (12:30) 8.8 (00:00) 13 6.67 (03:00) 5.28 (03:40) 0 0 0 0 0
17-03-2020 13.8 (16:40) 9.1 (00:00) 11.5 3.61 (00:10) 2.78 (14:10) 1.3 1.3 0 0 0
16-03-2020 11.1 (14:40) 7.3 (00:00) 9.2 9.17 (15:50) 5.83 (00:50) 27.3 5.8 16.3 5.2 0
15-03-2020 17.6 (10:40) 5.5 (00:00) 11.6 15.28 (20:50) 10.83 (20:40) 14 0 0 0 14
14-03-2020 16.1 (16:10) 1.9 (00:00) 9 6.67 (17:00) 4.17 (17:10) 0 0 0 0 0
13-03-2020 14.3 (14:30) 4.2 (23:59) 9.3 7.78 (12:40) 4.44 (15:10) 0.4 0.4 0 0 0
12-03-2020 15.2 (13:30) 10.2 (00:00) 12.7 6.67 (16:40) 5 (16:40) 1.5 0 0 0.1 1.4
11-03-2020 19.6 (14:10) 5.4 (00:00) 12.5 7.78 (17:40) 5.83 (17:40) 0 0 0 0 0
10-03-2020 16 (14:50) 5.7 (00:00) 10.8 6.67 (13:40) 4.72 (13:40) 0 0 0 0 0

Gráficas

Temp. máximas Temp. mínimas Temp. medias Precipitaciones Rachas de viento máximas Velocidades máximas media en intervalos de 10 minutos

Datos horarios

Fecha y hora oficial Temperatura (ºC) Velocidad del viento (km/h) Dirección del viento Racha (km/h) Dirección de racha Precipitación (mm) Presión (hPa) Tendencia (hPa) Humedad (%)
2020-04-08 23:00:00 12.7 0 Calma 8 Sudoeste 0 1016.9 0.8 94
2020-04-08 22:00:00 13.2 3 Sudoeste 9 Oeste 0 1016.7 0.9 93
2020-04-08 21:00:00 14 8 Oeste 15 Oeste 0 1016.3 0.7 92
2020-04-08 20:00:00 14.9 12 Oeste 21 Oeste 0 1016.1 0.2 88
2020-04-08 19:00:00 15.7 15 Oeste 22 Oeste 0 1015.8 -0.5 85
2020-04-08 18:00:00 16.5 17 Oeste 26 Oeste 0 1015.6 -0.9 83
2020-04-08 17:00:00 16.6 21 Oeste 28 Oeste 0 1015.9 -0.9 81
2020-04-08 16:00:00 18.2 19 Oeste 30 Oeste 0 1016.3 -1.4 75
2020-04-08 15:00:00 19.7 18 Oeste 28 Oeste 0 1016.5 -1.7 72
2020-04-08 14:00:00 22.8 9 Sudoeste 24 Sudeste 0 1016.8 -1.7 53
2020-04-08 13:00:00 21.6 13 Sudoeste 28 Sudoeste 0 1017.7 -1.2 52
2020-04-08 12:00:00 20.6 14 Sur 28 Sudeste 0 1018.2 -0.6 56
2020-04-08 11:00:00 17.8 0 Calma 9 Oeste 0 1018.5 0.2 74
2020-04-08 10:00:00 12.9 7 Oeste 13 Oeste 0 1018.9 1 97
2020-04-08 09:00:00 11.9 10 Oeste 17 Oeste 0 1018.8 0.8 96
2020-04-08 08:00:00 15.7 11 Sur 30 Sur 0 1018.3 -0.1 70
2020-04-08 07:00:00 13.2 9 Este 24 Sudeste 0 1017.9 -0.7 84
2020-04-08 06:00:00 12.3 3 Oeste 13 Oeste 0 1018 -0.9 94
2020-04-08 05:00:00 13.5 3 Sur 18 Sur 0 1018.4 -0.7 85
2020-04-08 04:00:00 15.8 11 Sur 22 Sudeste 0 1018.6 -0.5 72
2020-04-08 03:00:00 14 8 Sudeste 18 Sudeste 0 1018.9 -0.2 85
2020-04-08 02:00:00 13.4 3 Noroeste 11 Sudeste 0 1019.1 0.3 92
2020-04-08 01:00:00 14.1 2 Nordeste 15 Sudeste 0 1019.1 0.8 88
2020-04-08 00:00:00 16 7 Este 22 Sudeste 0 1019.1 0.9 72
2020-04-07 23:00:00 16.3 14 Este 24 Este 0 1018.8 1.5 71
2020-04-07 22:00:00 15.1 6 Este 11 Sudeste 0 1018.3 2.2 88
2020-04-07 21:00:00 15.6 8 Oeste 18 Oeste 0 1018.2 2.4 84
2020-04-07 20:00:00 17.3 14 Oeste 26 Sudeste 0 1017.3 1.3 77
2020-04-07 19:00:00 21.3 20 Este 30 Sudeste 0 1016.1 -0.1 57
2020-04-07 18:00:00 22.4 16 Sudeste 28 Sudeste 0 1015.8 -0.9 55
2020-04-07 17:00:00 22.5 15 Sur 32 Sur 0 1016 -1.2 51
2020-04-07 16:00:00 22.5 15 Sudeste 32 Sur 0 1016.2 -1.4 52
2020-04-07 15:00:00 21.7 18 Sur 33 Sur 0 1016.7 -1.3 54
2020-04-07 14:00:00 20.9 20 Sur 35 Sur 0 1017.2 -0.9 57
2020-04-07 13:00:00 19.4 14 Sur 39 Sur 0 1017.6 -0.4 63
2020-04-07 12:00:00 16.9 14 Sudeste 32 Sudeste 0 1018 0.2 75
2020-04-07 11:00:00 15.5 12 Este 18 Este 0 1018.1 0.5 82
2020-04-07 10:00:00 13.6 12 Este 17 Este 0 1018 0.6 94
2020-04-07 09:00:00 11.8 11 Este 13 Este 0 1017.8 0.3 98
2020-04-07 08:00:00 10.8 3 Sudoeste 9 Este 0 1017.6 -0.2 98
2020-04-07 07:00:00 10.6 4 Este 9 Este 0 1017.4 -0.8 97
2020-04-07 06:00:00 10.7 6 Nordeste 9 Este 0 1017.5 -1.1 97
2020-04-07 05:00:00 11.2 4 Este 9 Este 0 1017.8 -1.2 97
2020-04-07 04:00:00 11.4 5 Este 5 Este 0 1018.2 -1.1 97
2020-04-07 03:00:00 11.5 5 Nordeste 8 Nordeste 0 1018.6 -0.9 98
2020-04-07 02:00:00 11.5 3 Sudeste 8 Sudeste 0.1 1019 -0.7 97
2020-04-07 01:00:00 11.7 0 Calma 5 Noroeste 0.1 1019.3 -0.6 97
2020-04-07 00:00:00 11.7 5 Noroeste 5 Oeste 0 1019.5 0.1 96
2020-04-06 23:00:00 11.6 0 Calma 5 Sudoeste 0.3 1019.7 0.8 96
2020-04-06 22:00:00 11.6 6 Sudoeste 11 Sudoeste 0.1 1019.9 1.2 96
2020-04-06 21:00:00 11.8 5 Oeste 11 Noroeste 0 1019.4 0.9 96
2020-04-06 20:00:00 12.2 4 Oeste 9 Noroeste 0 1018.9 0.6 95
2020-04-06 19:00:00 12.5 5 Oeste 15 Noroeste 0 1018.7 0.3 90
2020-04-06 18:00:00 12.3 8 Noroeste 21 Noroeste 0 1018.5 0.4 93
2020-04-06 17:00:00 12.3 10 Oeste 21 Noroeste 0 1018.3 0.9 95
2020-04-06 16:00:00 12.7 14 Noroeste 21 Noroeste 0.1 1018.4 1.8 90
2020-04-06 15:00:00 12.4 12 Noroeste 30 Oeste 0.4 1018.1 2 95
2020-04-06 14:00:00 13.1 16 Oeste 24 Oeste 0.3 1017.4 1.9 96
2020-04-06 13:00:00 13.4 5 Oeste 13 Oeste 0 1016.6 1.7 91
2020-04-06 12:00:00 13.3 6 Oeste 11 Noroeste 0.3 1016.1 2.1 92
2020-04-06 11:00:00 13.1 3 Este 11 Este 0.6 1015.5 2.1 94
2020-04-06 10:00:00 12.6 0 Calma 8 Norte 0.7 1014.9 2.3 92
2020-04-06 09:00:00 12.8 0 Calma 9 Nordeste 0.4 1014 2.1 90
2020-04-06 08:00:00 12.8 9 Este 17 Este 0.9 1013.4 2.2 91
2020-04-06 07:00:00 14.6 8 Sudeste 11 Sudeste 0.1 1012.6 1.8 83
2020-04-06 06:00:00 15.7 8 Noroeste 21 Sur 0 1011.9 0.8 71
2020-04-06 05:00:00 16.5 11 Sur 26 Sur 0 1011.2 0.5 64
2020-04-06 04:00:00 17 9 Sudeste 37 Sudeste 0 1010.8 0.8 62
2020-04-06 03:00:00 17.1 12 Sudeste 26 Sudeste 0 1011.1 1.9 61
2020-04-06 02:00:00 16.9 17 Sudeste 28 Este 0 1010.7 1.2 62
2020-04-06 01:00:00 17.7 17 Sudeste 33 Este 0 1010 0.8 56
2020-04-06 00:00:00 18.2 24 Sudeste 33 Sudeste 0 1009.2 1.3 53
2020-04-05 23:00:00 18.5 20 Sudeste 28 Sur 0 1009.5 2.7 53
2020-04-05 22:00:00 19.2 5 Este 32 Sudeste 0 1009.2 2.9 51
2020-04-05 21:00:00 20 17 Sudeste 30 Sudeste 0 1007.9 1.9 47
2020-04-05 20:00:00 21.3 19 Sudeste 32 Sudeste 0 1006.8 0.4 45
2020-04-05 19:00:00 22.3 20 Sudeste 39 Este 0 1006.3 -0.5 44
2020-04-05 18:00:00 23.8 22 Sudeste 42 Sudeste 0 1006 -1.1 42
2020-04-05 17:00:00 24 26 Sur 46 Sur 0 1006.4 -1.1 37
2020-04-05 16:00:00 23.2 21 Sur 50 Sur 0 1006.8 -1.3 38
2020-04-05 15:00:00 22.7 23 Sur 46 Sur 0 1007.1 -1.4 38
2020-04-05 14:00:00 23 22 Sur 45 Sudeste 0 1007.5 -0.9 39
2020-04-05 13:00:00 21.2 26 Sudeste 52 Sudeste 0 1008.1 -0.6 42
2020-04-05 12:00:00 19 32 Sur 63 Sur 0 1008.5 -0.2 45
2020-04-05 11:00:00 17.6 27 Sudeste 50 Sudeste 0 1008.4 -0.2 49
2020-04-05 10:00:00 16.5 27 Sudeste 50 Sudeste 0 1008.7 0.7 52
2020-04-05 09:00:00 14.8 27 Sudeste 54 Sudeste 0 1008.7 0.4 55
2020-04-05 08:00:00 14.2 27 Sudeste 41 Sudeste 0 1008.6 0.6 57
2020-04-05 07:00:00 14.3 28 Sudeste 48 Sudeste 0 1008 -0.4 56
2020-04-05 06:00:00 14.6 29 Sudeste 54 Sudeste 0 1008.3 -0.4 56
2020-04-05 05:00:00 15.1 39 Sudeste 58 Sudeste 0 1008 -1.4 56
2020-04-05 04:00:00 16 35 Sudeste 55 Sudeste 0 1008.4 -1.1 53
2020-04-05 03:00:00 16.6 33 Sudeste 48 Sudeste 0 1008.7 -0.5 51
2020-04-05 02:00:00 16.9 25 Sudeste 42 Sudeste 0 1009.4 0.6 48
2020-04-05 01:00:00 17.6 22 Sudeste 46 Sur 0 1009.5 1.2 45
2020-04-05 00:00:00 18.2 28 Sudeste 54 Sudeste 0 1009.2 1.6 45
2020-04-04 23:00:00 18.5 26 Sudeste 45 Sudeste 0 1008.8 1.7 44
2020-04-04 22:00:00 19.3 29 Sudeste 46 Sudeste 0 1008.3 1.5 42
2020-04-04 21:00:00 20.1 30 Sudeste 45 Sudeste 0 1007.6 0.8 37
2020-04-04 20:00:00 21.2 26 Sudeste 41 Sur 0 1007.1 0.1 30
2020-04-04 19:00:00 22.6 25 Sudeste 45 Sudeste 0 1006.8 -0.8 30
2020-04-04 18:00:00 22.7 27 Sudeste 46 Sudeste 0 1006.8 -1.4 28
2020-04-04 17:00:00 24.1 24 Sudeste 45 Sudeste 0 1007 -1.8 28
2020-04-04 16:00:00 23.9 27 Sudeste 39 Este 0 1007.6 -2.1 27
2020-04-04 15:00:00 23.1 26 Sudeste 42 Sudeste 0 1008.2 -2.3 29
2020-04-04 14:00:00 22.1 22 Este 39 Este 0 1008.8 -2.3 32
2020-04-04 13:00:00 20.8 17 Sudeste 28 Sudeste 0 1009.7 -1.5 33
2020-04-04 12:00:00 18.7 10 Sudeste 32 Sur 0 1010.5 -0.7 39
2020-04-04 11:00:00 15.8 13 Sudeste 26 Sur 0 1011.1 0.5 45
2020-04-04 10:00:00 14.1 9 Sudeste 21 Sudeste 0 1011.2 0.5 49
2020-04-04 09:00:00 10.6 5 Sudeste 22 Sudeste 0 1011.2 0.3 60
2020-04-04 08:00:00 8.1 22 Sudeste 26 Sudeste 0 1010.6 -0.6 72
2020-04-04 07:00:00 5.8 16 Este 24 Sudeste 0 1010.7 -1 82
2020-04-04 06:00:00 5.1 10 Este 22 Sudeste 0 1010.9 -1.4 86
2020-04-04 05:00:00 5.1 15 Este 21 Sudeste 0 1011.2 -1.3 87
2020-04-04 04:00:00 5.5 12 Sudeste 21 Sudeste 0 1011.7 -1.3 86
2020-04-04 03:00:00 5.9 9 Sudeste 15 Sudeste 0 1012.3 -0.9 85
2020-04-04 02:00:00 5.9 12 Sudeste 15 Sudeste 0 1012.5 -1 85
2020-04-04 01:00:00 6.3 5 Este 11 Este 0 1013 -0.5 82
2020-04-04 00:00:00 6.8 5 Este 9 Sudeste 0 1013.2 0.2 79
2020-04-03 23:00:00 7.8 5 Este 9 Este 0 1013.5 0.4 76
2020-04-03 22:00:00 8.9 7 Este 18 Este 0 1013.5 0.5 72
2020-04-03 21:00:00 10 13 Este 18 Sudeste 0 1013 0 67
2020-04-03 20:00:00 12.2 13 Este 21 Este 0 1013.1 -0.2 62
2020-04-03 19:00:00 14 16 Este 30 Nordeste 0 1013 -0.9 57
2020-04-03 18:00:00 14.8 16 Este 33 Nordeste 0 1013 -1.7 58
2020-04-03 17:00:00 15.1 16 Nordeste 28 Nordeste 0 1013.3 -2.2 54
2020-04-03 16:00:00 14.9 14 Nordeste 28 Norte 0 1013.9 -2.4 49
2020-04-03 15:00:00 14.9 10 Nordeste 24 Nordeste -- 1014.7 -1.9 49
2020-04-03 14:00:00 13.6 9 Norte 17 Norte -- 1015.5 -0.8 54
2020-04-03 13:00:00 12.6 2 Este 11 Norte -- 1016.3 0.1 51
2020-04-03 12:00:00 11.6 3 Norte 9 Este -- 1016.6 0.6 58
2020-04-03 11:00:00 10.2 2 Este 8 Este 0 1016.3 0.5 73
2020-04-03 10:00:00 7 5 Este 11 Sudeste 0 1016.2 0.7 86
2020-04-03 09:00:00 3.7 6 Este 13 Este 0 1016 0.5 95
2020-04-03 08:00:00 2.5 10 Este 11 Este 0 1015.8 0.4 95
2020-04-03 07:00:00 -- 9 Este 11 Este 0 1015.5 -0.2 --
2020-04-03 06:00:00 3 8 Este 11 Este 0 1015.5 -0.5 94
2020-04-03 05:00:00 3.6 6 Este 11 Este 0 1015.4 -0.6 93
2020-04-03 04:00:00 4.1 5 Este 9 Este 0 1015.7 -0.2 92
2020-04-03 03:00:00 4.6 7 Este 9 Este 0 1016 0.1 92
2020-04-03 02:00:00 5.4 5 Este 9 Este 0 1016 0.4 90
2020-04-03 01:00:00 6.1 7 Este 9 Este 0 1015.9 0.8 88
2020-04-03 00:00:00 7 6 Este 8 Este 0 1015.9 1.7 87
2020-04-02 23:00:00 8.9 0 Calma 13 Noroeste 0 1015.6 1.9 73
2020-04-02 22:00:00 9.9 8 Noroeste 13 Noroeste 0 1015.1 1.9 70
2020-04-02 21:00:00 10.4 10 Noroeste 22 Noroeste 0 1014.2 1.5 71
2020-04-02 20:00:00 11.6 16 Noroeste 30 Noroeste 0 1013.7 1.3 68
2020-04-02 19:00:00 12.4 18 Noroeste 28 Noroeste 0 1013.2 1.1 69
2020-04-02 18:00:00 13.3 22 Oeste 32 Noroeste 0 1012.7 1 66
2020-04-02 17:00:00 13.8 19 Noroeste 30 Noroeste 0 1012.4 0.7 66
2020-04-02 16:00:00 14.5 21 Noroeste 32 Oeste 0 1012.1 0.5 63
2020-04-02 15:00:00 14.8 15 Norte 28 Norte 0 1011.7 0.3 71
2020-04-02 14:00:00 14.5 17 Norte 28 Noroeste 0 1011.7 0.6 73
2020-04-02 13:00:00 14.4 14 Oeste 26 Oeste 0 1011.6 1.2 79
2020-04-02 12:00:00 13.7 15 Noroeste 26 Noroeste 0 1011.4 1.5 86
2020-04-02 11:00:00 12.4 14 Noroeste 21 Noroeste 0 1011.1 1.8 91
2020-04-02 10:00:00 11.9 12 Noroeste 17 Noroeste 0 1010.4 1.4 96
2020-04-02 09:00:00 11.3 0 Calma 5 Oeste 0.6 1009.9 1 95
2020-04-02 08:00:00 11.3 0 Calma 8 Sudoeste 0 1009.3 0.6 91
2020-04-02 07:00:00 10.7 0 Calma 8 Oeste 0 1009 0.2 92
2020-04-02 06:00:00 10.4 0 Calma 11 Sudeste 0 1008.9 -0.2 92
2020-04-02 05:00:00 10.3 6 Nordeste 8 Este 0 1008.7 -0.5 93
2020-04-02 04:00:00 10.9 0 Calma 8 Este 0 1008.8 -0.4 93
2020-04-02 03:00:00 11 0 Calma 9 Nordeste 0 1009.1 -0.5 91
2020-04-02 02:00:00 11.1 2 Sur 5 Sudoeste 0 1009.2 -0.2 90
2020-04-02 01:00:00 11.9 2 Norte 8 Noroeste 0 1009.2 0 87
2020-04-02 00:00:00 12.6 2 Oeste 13 Este 0.1 1009.6 1.2 84
2020-04-01 23:00:00 13.2 5 Este 11 Este 0 1009.4 1.5 74
2020-04-01 22:00:00 13.9 7 Este 15 Este 0 1009.2 1.5 70
2020-04-01 21:00:00 14.6 6 Este 13 Este 0 1008.4 0.8 66
2020-04-01 20:00:00 15.5 6 Sudeste 15 Este 0 1007.9 0.3 60
2020-04-01 19:00:00 16.2 11 Sur 21 Sudeste 0 1007.7 0 55
2020-04-01 18:00:00 16.4 16 Sudeste 28 Sudeste 0 1007.6 -0.7 53
2020-04-01 17:00:00 17.5 21 Sudeste 33 Sudeste 0 1007.6 -1 51
2020-04-01 16:00:00 17.4 19 Sudeste 35 Sur 0 1007.7 -1.1 52
2020-04-01 15:00:00 16.3 22 Sudeste 45 Sudeste 0 1008.3 -0.5 54
2020-04-01 14:00:00 16.1 27 Sudeste 45 Sudeste 0 1008.6 -0.2 58
2020-04-01 13:00:00 15.2 23 Sur 54 Sur 0 1008.8 0.3 57
2020-04-01 12:00:00 15.4 25 Sudeste 45 Sudeste 0 1008.8 0.4 60
2020-04-01 11:00:00 14.2 17 Sudeste 41 Sudeste 0 1008.8 0.9 64
2020-04-01 10:00:00 12.3 18 Sudeste 45 Sudeste 0 1008.5 0.5 73
2020-04-01 09:00:00 8.9 4 Sudeste 17 Este 0.7 1008.4 0.4 96
2020-04-01 08:00:00 8.2 14 Este 21 Este 1 1007.9 -0.2 96
2020-04-01 07:00:00 6.9 8 Este 11 Este 0 1008 -0.4 97
2020-04-01 06:00:00 6.9 8 Este 13 Nordeste 0 1008 -0.9 96
2020-04-01 05:00:00 6.9 6 Nordeste 18 Este 0 1008.1 -0.9 96
2020-04-01 04:00:00 7.3 6 Este 15 Este 0 1008.4 -0.8 95
2020-04-01 03:00:00 7.5 12 Este 13 Este 0 1008.9 -0.5 95
2020-04-01 02:00:00 6.9 13 Sudeste 15 Este 0 1009 -0.4 96
2020-04-01 01:00:00 6.7 6 Este 11 Sudeste 0 1009.2 -0.3 96
2020-04-01 00:00:00 7.2 5 Sudeste 9 Sudeste 0 1009.4 0.1 93
2020-03-31 23:00:00 7.8 0 Calma 8 Sudeste 0 1009.4 0.2 92
2020-03-31 22:00:00 7.9 0 Calma 13 Sudeste 0 1009.5 0.6 90
2020-03-31 21:00:00 7.8 9 Este 15 Este 0 1009.3 0.2 89
2020-03-31 20:00:00 8.1 9 Este 15 Este 0 1009.2 0.1 88
2020-03-31 19:00:00 8.1 10 Este 15 Este 0.2 1008.9 -0.5 90
2020-03-31 18:00:00 8.2 7 Este 18 Este 0.3 1009.1 -0.7 89
2020-03-31 17:00:00 8.2 15 Este 21 Este 0.4 1009.1 -1 88
2020-03-31 16:00:00 8 12 Este 18 Este 0.6 1009.4 -1.2 89
2020-03-31 15:00:00 8.1 8 Sudeste 15 Sudeste 0.2 1009.8 -1.1 86
2020-03-31 14:00:00 7.4 9 Sudeste 18 Sudeste 0.3 1010.1 -1 85
2020-03-31 13:00:00 6.6 10 Sudeste 17 Sudeste 0.2 1010.6 -0.4 86
2020-03-31 12:00:00 6.1 11 Sudeste 17 Sudeste 0.1 1010.9 -0.1 85
2020-03-31 11:00:00 5.2 10 Sudeste 15 Sudeste 0 1011.1 0.2 87
2020-03-31 10:00:00 3.8 0 Calma 4 Nordeste 0 1011 0.3 92
2020-03-31 09:00:00 3 0 Calma 8 Sudeste 0 1011 0.3 96
2020-03-31 08:00:00 2.6 4 Sudeste 11 Sudeste 0 1010.9 -0.1 97
2020-03-31 07:00:00 2 5 Este 8 Sudeste 0 1010.7 -0.8 97
2020-03-31 06:00:00 1.6 0 Calma 5 Sudeste 0 1010.7 -1.4 97
2020-03-31 05:00:00 1.5 3 Sudeste 5 Sudeste 0 1011 -1.3 97
2020-03-31 04:00:00 1.7 4 Sudeste 13 Este 0 1011.5 -1.2 97
2020-03-31 03:00:00 1.6 7 Este 18 Este 0 1012.1 -1.4 97
2020-03-31 02:00:00 1.8 10 Sudeste 13 Sudeste 0 1012.3 -1.5 95
2020-03-31 01:00:00 3.6 8 Sudeste 11 Sudeste 0 1012.7 -1.3 95
2020-03-31 00:00:00 3.6 6 Este 13 Este 0 1013.5 -0.8 95
2020-03-30 23:00:00 3.8 8 Este 11 Sudeste 0.1 1013.8 -0.3 95
2020-03-30 22:00:00 3.8 5 Nordeste 9 Este 0.1 1014 -0.2 94
2020-03-30 21:00:00 4.1 6 Sudeste 9 Sudeste 0.4 1014.3 -0.4 93
2020-03-30 20:00:00 4.1 5 Sudeste 11 Sur 0 1014.1 -0.7 90
2020-03-30 19:00:00 4 5 Sudoeste 15 Sudoeste 0.6 1014.2 -1.2 91
2020-03-30 18:00:00 4 12 Noroeste 22 Norte 2.6 1014.7 -1.3 92
2020-03-30 17:00:00 5.7 3 Sudoeste 32 Norte 0.2 1014.8 -1.8 82
2020-03-30 16:00:00 6.2 20 Noroeste 30 Noroeste 0 1015.4 -1.3 78
2020-03-30 15:00:00 4.9 14 Noroeste 33 Norte 0.2 1016 -1.4 82
2020-03-30 14:00:00 4.2 17 Nordeste 30 Nordeste 0.4 1016.6 -1.3 83
2020-03-30 13:00:00 6.3 17 Norte 32 Nordeste 0 1016.7 -1.4 77
2020-03-30 12:00:00 6 4 Sudeste 15 Sur 0 1017.4 -0.5 78
2020-03-30 11:00:00 4.7 8 Sur 17 Este 0.2 1017.9 0.1 86
2020-03-30 10:00:00 4.1 6 Sur 13 Sudoeste 0.3 1018.1 0.5 88
2020-03-30 09:00:00 3.1 5 Sudoeste 41 Norte 0.8 1017.9 -0.1 87
2020-03-30 08:00:00 4.2 11 Noroeste 28 Norte 0 1017.8 -0.5 77
2020-03-30 07:00:00 3.4 5 Nordeste 46 Norte 0.1 1017.6 -1.2 85
2020-03-30 06:00:00 4.1 5 Norte 17 Noroeste 0 1018 -1.5 95
2020-03-30 05:00:00 4.8 3 Sudeste 5 Sur 0 1018.3 -1.4 93
2020-03-30 04:00:00 5.4 0 Calma 8 Sur 0 1018.8 -0.9 86
2020-03-30 03:00:00 5.8 4 Sudoeste 18 Este 0.1 1019.5 0 89
2020-03-30 02:00:00 6.1 9 Nordeste 28 Nordeste 0.4 1019.7 0.2 86
2020-03-30 01:00:00 7.4 15 Norte 28 Norte 0.2 1019.7 0.5 76
2020-03-30 00:00:00 7.8 6 Nordeste 18 Nordeste 0 1019.5 0.8 72
2020-03-29 23:00:00 7.8 17 Nordeste 30 Este 0 1019.5 1.4 74
2020-03-29 22:00:00 8.3 14 Norte 30 Norte 0 1019.2 1.3 75
2020-03-29 21:00:00 8.9 17 Norte 33 Norte 0 1018.7 1.1 75
2020-03-29 20:00:00 9.5 15 Norte 32 Norte 0 1018.1 0.5 78
2020-03-29 19:00:00 10 15 Norte 28 Norte 0 1017.9 0.4 79
2020-03-29 18:00:00 10.3 13 Norte 28 Norte 0 1017.6 0.1 80
2020-03-29 17:00:00 10.3 9 Norte 28 Norte 0.1 1017.6 0.2 83
2020-03-29 16:00:00 10.4 15 Norte 32 Norte 0.6 1017.5 -0.5 91
2020-03-29 15:00:00 12.3 17 Noroeste 30 Noroeste 0 1017.5 -0.7 70
2020-03-29 14:00:00 14.1 15 Noroeste 28 Noroeste 0 1017.4 -0.8 64
2020-03-29 13:00:00 13.5 18 Noroeste 28 Noroeste 0 1018 -0.2 64
2020-03-29 12:00:00 12.6 6 Oeste 13 Oeste 0 1018.2 0 69
2020-03-29 11:00:00 9.7 4 Este 9 Este 0 1018.2 0.5 71
2020-03-29 10:00:00 6.8 8 Este 13 Sudeste 0 1018.2 0.7 81
2020-03-29 09:00:00 4.2 9 Este 13 Este 0 1018.2 1 88
2020-03-29 08:00:00 3.4 10 Este 13 Este 0 1017.7 0.4 90
2020-03-29 07:00:00 4 9 Este 13 Este 0 1017.5 -0.1 87
2020-03-29 06:00:00 4.4 9 Este 15 Este 0 1017.2 -0.6 87
2020-03-29 05:00:00 4.6 10 Este 13 Este 0 1017.3 -0.6 87
2020-03-29 03:00:00 4.8 9 Este 13 Este 0 1017.8 0.2 85
2020-03-29 01:00:00 5.6 7 Este 11 Este 0 1017.9 0.5 84
2020-03-29 00:00:00 6.3 4 Este 8 Este 0 1017.8 0.8 81
2020-03-28 23:00:00 7.3 5 Este 8 Este 0 1017.6 1.5 79
2020-03-28 22:00:00 8.6 0 Calma 4 Sudeste 0 1017.4 2.1 71
2020-03-28 21:00:00 10.2 0 Calma 11 Nordeste 0 1017 2.4 64
2020-03-28 20:00:00 11.9 9 Norte 13 Nordeste 0 1016.1 1.9 57
2020-03-28 19:00:00 13.8 7 Nordeste 21 Norte 0 1015.3 1.1 48
2020-03-28 18:00:00 15.4 15 Nordeste 22 Nordeste 0 1014.6 0.2 44
2020-03-28 17:00:00 16.3 14 Nordeste 28 Norte 0 1014.2 -0.5 38
2020-03-28 16:00:00 17.1 14 Nordeste 26 Norte 0 1014.2 -0.8 40
2020-03-28 15:00:00 17.2 13 Norte 33 Norte 0 1014.4 -0.9 46
2020-03-28 14:00:00 16.9 12 Norte 28 Oeste 0 1014.7 -0.8 51
2020-03-28 13:00:00 16.9 10 Norte 26 Nordeste 0 1015 -0.4 43
2020-03-28 12:00:00 16.2 2 Este 9 Sur 0 1015.3 0 47
2020-03-28 11:00:00 13.3 3 Este 9 Este 0 1015.5 0.7 55
2020-03-28 10:00:00 10.2 6 Este 13 Este 0 1015.4 1 69
2020-03-28 09:00:00 7 8 Sudeste 11 Sudeste 0 1015.3 1.3 80
2020-03-28 08:00:00 3.6 6 Este 11 Este 0 1014.8 1 91
2020-03-28 07:00:00 2.7 9 Este 13 Este 0 1014.4 0.8 92
2020-03-28 06:00:00 2.9 8 Este 11 Este 0 1014 0.3 92
2020-03-28 05:00:00 3.4 8 Este 11 Este 0 1013.8 -0.1 91
2020-03-28 04:00:00 3.8 8 Este 11 Este 0 1013.6 -0.2 90
2020-03-28 03:00:00 4.4 5 Este 11 Este 0 1013.7 -0.1 89
2020-03-28 02:00:00 4.3 8 Este 11 Este 0 1013.9 0.2 90
2020-03-28 01:00:00 5.2 5 Este 8 Este 0 1013.8 0.5 87
2020-03-28 00:00:00 5.9 5 Este 8 Este 0 1013.8 0.9 84
2020-03-27 23:00:00 6.7 5 Este 8 Este 0 1013.7 1.5 81
2020-03-27 22:00:00 8.5 5 Este 9 Este 0 1013.3 1.8 74
2020-03-27 21:00:00 8.9 7 Este 24 Este 0 1012.9 2.2 71
2020-03-27 20:00:00 10.5 13 Este 24 Nordeste 0 1012.2 1.9 66
2020-03-27 19:00:00 11.9 16 Este 26 Este 0 1011.5 1.3 57
2020-03-27 18:00:00 13.2 18 Nordeste 26 Este 0 1010.7 0.3 54
2020-03-27 17:00:00 13.9 17 Norte 30 Nordeste 0 1010.3 -0.5 47
2020-03-27 16:00:00 14.5 20 Norte 30 Norte 0 1010.2 -1.1 43
2020-03-27 15:00:00 13.9 15 Nordeste 26 Nordeste 0 1010.4 -1.5 51
2020-03-27 14:00:00 14.5 12 Noroeste 32 Norte 0 1010.8 -1.5 56
2020-03-27 13:00:00 14.1 7 Noroeste 21 Noroeste 0 1011.3 -1.1 47
2020-03-27 12:00:00 13.3 5 Sudeste 13 Este 0 1011.9 -0.2 48
2020-03-27 11:00:00 11.5 3 Sudeste 9 Sudeste 0 1012.3 0.3 52
2020-03-27 10:00:00 8.4 5 Este 13 Este 0 1012.4 0.7 64
2020-03-27 09:00:00 5.2 9 Este 15 Este 0 1012.1 0.7 77
2020-03-27 08:00:00 2.3 6 Este 11 Este 0 1012 1.2 86
2020-03-27 07:00:00 1.3 8 Este 11 Este 0 1011.7 1.1 89
2020-03-27 06:00:00 1.7 8 Este 11 Este 0 1011.4 0.8 88
2020-03-27 05:00:00 1.9 8 Este 13 Este 0 1010.8 0.1 87
2020-03-27 04:00:00 2.4 8 Este 11 Este 0 1010.6 -0.1 86
2020-03-27 03:00:00 3.1 7 Este 15 Este 0 1010.6 -0.1 84
2020-03-27 02:00:00 3.7 10 Este 13 Este 0 1010.7 0.2 82
2020-03-27 01:00:00 4.7 8 Este 15 Este 0 1010.7 0.1 77
2020-03-27 00:00:00 6.2 8 Este 11 Sudeste 0 1010.7 0.1 72
2020-03-26 23:00:00 6.6 6 Este 9 Este 0 1010.5 0.3 70
2020-03-26 22:00:00 6.2 7 Este 9 Sudeste 0 1010.6 1 72
2020-03-26 21:00:00 7 0 Calma 13 Norte 0 1010.6 1.4 64
2020-03-26 20:00:00 8.6 8 Norte 18 Norte 0 1010.2 1.3 55
2020-03-26 19:00:00 9.6 11 Noroeste 28 Norte 0 1009.6 0.8 49
2020-03-26 18:00:00 10.7 17 Norte 33 Norte 0 1009.2 0.5 47
2020-03-26 17:00:00 11 21 Norte 37 Norte 0 1008.9 -0.2 48
2020-03-26 16:00:00 11.9 25 Norte 39 Norte 0 1008.8 -0.8 44
2020-03-26 15:00:00 13.1 18 Norte 41 Norte 0 1008.7 -1.1 43
2020-03-26 14:00:00 12.5 25 Noroeste 42 Noroeste 0 1009.1 -0.6 43
2020-03-26 13:00:00 12.3 22 Norte 42 Norte 0 1009.6 0.1 46
2020-03-26 12:00:00 12.5 22 Norte 42 Norte 0 1009.8 0.5 47
2020-03-26 11:00:00 12.7 26 Norte 46 Norte 0 1009.7 0.5 43
2020-03-26 10:00:00 12.3 28 Norte 39 Norte 0 1009.5 0.6 52
2020-03-26 09:00:00 11.9 25 Noroeste 35 Noroeste 0 1009.3 0.3 51
2020-03-26 08:00:00 11.1 19 Noroeste 33 Noroeste 0 1009.2 0 62
2020-03-26 07:00:00 10.3 19 Oeste 35 Noroeste 0 1008.9 -0.9 70
2020-03-26 06:00:00 10.2 21 Oeste 32 Oeste 0 1009 -1.1 68
2020-03-26 05:00:00 10.2 22 Oeste 32 Oeste 0 1009.2 -1.5 66
2020-03-26 04:00:00 10.3 20 Noroeste 35 Noroeste 0 1009.8 -1.5 67
2020-03-26 03:00:00 10.4 17 Oeste 26 Oeste 0 1010.1 -1.4 65
2020-03-26 02:00:00 10.5 10 Oeste 18 Oeste 0 1010.7 -1.2 64
2020-03-26 01:00:00 10.2 10 Oeste 22 Oeste 0 1011.3 -0.7 64
2020-03-26 00:00:00 9.8 12 Oeste 18 Oeste 0 1011.5 -0.6 66
2020-03-25 23:00:00 9.3 10 Oeste 17 Oeste 0 1011.9 0.4 69
2020-03-25 22:00:00 8.4 8 Noroeste 15 Oeste 0 1012 0.8 71
2020-03-25 21:00:00 9.5 9 Noroeste 17 Oeste 0 1012.1 1 67
2020-03-25 20:00:00 9.4 8 Oeste 18 Noroeste 0 1011.5 0.9 71
2020-03-25 19:00:00 10.7 15 Noroeste 28 Noroeste 0 1011.2 0.3 66
2020-03-25 18:00:00 12.2 15 Noroeste 33 Noroeste 0 1011.1 0.2 58
2020-03-25 17:00:00 13.8 24 Noroeste 33 Noroeste 0 1010.6 -0.6 55
2020-03-25 16:00:00 14.5 21 Noroeste 33 Noroeste 0 1010.9 -0.6 62
2020-03-25 15:00:00 14.7 18 Noroeste 35 Oeste 0 1010.9 -0.9 64
2020-03-25 14:00:00 14.9 21 Noroeste 37 Oeste 0 1011.2 -0.6 67
2020-03-25 13:00:00 14.8 22 Oeste 33 Oeste 0 1011.5 -0.1 75
2020-03-25 12:00:00 13.9 18 Noroeste 28 Noroeste 0 1011.8 0 81
2020-03-25 11:00:00 13.8 16 Noroeste 26 Noroeste 0 1011.8 -0.2 80
2020-03-25 10:00:00 12.5 0 Calma 11 Este 0 1011.6 0 74
2020-03-25 09:00:00 9.4 8 Este 13 Este 0 1011.8 0.2 86
2020-03-25 08:00:00 6.3 9 Este 11 Este 0 1012 0.4 94
2020-03-25 07:00:00 6 8 Este 11 Este 0 1011.6 -0.2 94
2020-03-25 06:00:00 6 9 Este 13 Este 0 1011.6 -0.6 94
2020-03-25 05:00:00 6.6 6 Este 9 Este 0 1011.6 -0.8 94
2020-03-25 04:00:00 7 8 Este 13 Este 0 1011.8 -0.8 93
2020-03-25 03:00:00 7.2 9 Este 11 Este 0 1012.2 -0.6 93
2020-03-25 02:00:00 7.8 9 Este 11 Este 0 1012.4 -0.8 92
2020-03-25 01:00:00 8.7 6 Este -- -- 0 1012.6 -0.7 91
2020-03-25 00:00:00 9.3 5 Este 8 Sudeste 0 1012.8 -0.4 87
2020-03-24 23:00:00 10.6 2 Este 5 Este 0 1013.2 0.5 85
2020-03-24 22:00:00 11.5 0 Calma 8 Noroeste 0 1013.3 0.9 87
2020-03-24 21:00:00 12.7 3 Noroeste 9 Oeste 0 1013.2 1 86
2020-03-24 20:00:00 13.7 6 Sudoeste 18 Noroeste 0 1012.7 0.8 82
2020-03-24 19:00:00 16.7 5 Oeste 18 Nordeste 0 1012.4 0.4 65
2020-03-24 18:00:00 18.5 12 Nordeste 22 Nordeste 0 1012.2 -0.2 47
2020-03-24 17:00:00 19.4 18 Norte 32 Norte 0 1011.9 -1.2 46
2020-03-24 16:00:00 20.2 20 Norte 30 Norte 0 1012 -1.8 46
2020-03-24 15:00:00 20.7 12 Sudeste 21 Norte 0 1012.4 -2.3 48
2020-03-24 14:00:00 19.8 10 Nordeste 17 Este 0 1013.1 -1.9 48
2020-03-24 13:00:00 19.8 11 Este 28 Sur 0 1013.8 -1.3 49
2020-03-24 12:00:00 19 10 Sudeste 22 Este 0 1014.7 -0.7 50
2020-03-24 11:00:00 17.7 13 Este 22 Este 0 1015 -0.2 58
2020-03-24 10:00:00 15.5 8 Este 13 Este 0 1015.1 0.3 70
2020-03-24 09:00:00 10.8 3 Nordeste 11 Este 0 1015.4 0.6 90
2020-03-24 08:00:00 8.8 3 Este 15 Nordeste 0 1015.2 0.5 95
2020-03-24 07:00:00 8.1 5 Sudeste 9 Este 0 1014.8 -- 96
2020-03-24 06:00:00 8 2 Este 13 Este 0 1014.8 -- 97
2020-03-24 05:00:00 8 -- -- -- -- -- 1014.7 -- 96
2020-03-24 04:00:00 -- -- -- -- -- -- -- -- --
2020-03-24 03:00:00 -- -- -- -- -- -- -- -- --
2020-03-24 02:00:00 -- -- -- -- -- -- -- -- --
2020-03-24 01:00:00 -- -- -- -- -- -- -- -- --
2020-03-24 00:00:00 -- -- -- -- -- -- -- -- --
2020-03-23 23:00:00 -- -- -- -- -- -- -- -- --
2020-03-23 22:00:00 -- -- -- -- -- -- -- -- --
2020-03-23 21:00:00 -- -- -- -- -- -- -- -- --
2020-03-23 20:00:00 -- -- -- -- -- -- -- -- --
2020-03-23 19:00:00 14 16 Este 26 Este 0 1013.9 1 75
2020-03-23 18:00:00 15.1 12 Este 30 Este 0 1013.4 0 70
2020-03-23 17:00:00 16 14 Nordeste 28 Nordeste 0 1013 -1.2 66
2020-03-23 16:00:00 17 13 Nordeste 24 Este 0 1012.9 -2 63
2020-03-23 15:00:00 17 9 Nordeste 21 Norte 0 1013.4 -1.8 63
2020-03-23 14:00:00 15.9 8 Nordeste 21 Nordeste 0 1014.2 -1.1 66
2020-03-23 13:00:00 14.9 6 Norte 15 Norte 0 1014.9 -0.5 70
2020-03-23 12:00:00 14.7 2 Este 9 Este 0 1015.2 0.4 71
2020-03-23 11:00:00 13.6 0 Calma 9 Sudeste 0 1015.3 1 77
2020-03-23 10:00:00 12.5 2 Este 8 Este 0 1015.4 1.6 85
2020-03-23 09:00:00 11.6 6 Nordeste 9 Este 0 1014.8 1.4 90
2020-03-23 08:00:00 11.2 4 Sudeste 8 Nordeste 0 1014.3 1.3 93
2020-03-23 07:00:00 10.9 7 Este 11 Sudeste 0 1013.8 0.9 94
2020-03-23 06:00:00 11.3 0 Calma 5 Nordeste 0 1013.4 0.4 91
2020-03-23 05:00:00 11.4 0 Calma 8 Este 0 1013 0.2 91
2020-03-23 04:00:00 11.3 0 Calma 8 Este 0 1012.9 0.2 92
2020-03-23 03:00:00 11 5 Este 8 Este 0 1013 0.3 93
2020-03-23 02:00:00 10.8 3 Nordeste 8 Sur 0 1012.8 0.2 92
2020-03-23 01:00:00 11 0 Calma 5 Nordeste 0 1012.7 0.3 91
2020-03-23 00:00:00 11.2 3 Oeste 13 Noroeste 0 1012.7 0.9 90
2020-03-22 23:00:00 12.1 11 Oeste 13 Oeste 0 1012.6 1.5 85
2020-03-22 22:00:00 13 9 Noroeste 15 Noroeste 0 1012.4 1.9 82
2020-03-22 21:00:00 13.2 4 Noroeste 15 Noroeste 0 1011.8 1.9 82
2020-03-22 20:00:00 13.3 10 Noroeste 22 Noroeste 0 1011.1 1.7 82
2020-03-22 19:00:00 13.6 12 Noroeste 24 Oeste 0 1010.5 1.3 82
2020-03-22 18:00:00 15 15 Noroeste 30 Oeste 0 1009.9 0.4 72
2020-03-22 17:00:00 15.9 15 Noroeste 28 Noroeste 0 1009.4 -0.1 69
2020-03-22 16:00:00 15.8 18 Oeste 24 Oeste 0 1009.2 -0.5 69
2020-03-22 15:00:00 15.8 12 Noroeste 24 Noroeste 0 1009.5 -0.4 70
2020-03-22 14:00:00 15.3 12 Noroeste 21 Noroeste 0 1009.5 -0.4 72
2020-03-22 13:00:00 15.3 9 Noroeste 18 Norte 0 1009.7 -0.1 68
2020-03-22 12:00:00 14.6 10 Norte 18 Noroeste 0 1009.9 0.6 69
2020-03-22 11:00:00 14.2 4 Sudoeste 9 Sudoeste 0 1009.9 0.9 75
2020-03-22 10:00:00 12.1 0 Calma -- -- 0 1009.8 1.4 85
2020-03-22 09:00:00 10.8 3 Noroeste 9 Noroeste 0 1009.3 1.4 91
2020-03-22 08:00:00 10.6 0 Calma 5 Oeste 0 1009 1.4 91
2020-03-22 07:00:00 10.4 0 Calma 5 Oeste 0 1008.4 1 93
2020-03-22 06:00:00 10.8 0 Calma 4 Oeste 0 1007.9 0.4 94
2020-03-22 05:00:00 10.4 0 Calma 5 Sur 0 1007.6 0 94
2020-03-22 04:00:00 10.2 5 Este 11 Sudeste 0 1007.4 -0.1 93
2020-03-22 03:00:00 9.7 7 Este 11 Este 0 1007.5 0.3 93
2020-03-22 02:00:00 9.5 5 Este 8 Este 0 1007.6 0.7 88
2020-03-22 01:00:00 10 5 Este 8 Este 0 1007.5 1.2 88
2020-03-22 00:00:00 12.1 6 Oeste 13 Oeste 0 1007.2 1.5 88
2020-03-21 23:00:00 12.6 9 Oeste 17 Oeste 0 1006.9 1.8 84
2020-03-21 22:00:00 13.1 10 Oeste 17 Oeste 0 1006.3 2.2 76
2020-03-21 21:00:00 15.5 14 Este 22 Este 0 1005.7 2 56
2020-03-21 20:00:00 16.4 12 Este 15 Este 0 1005.1 1.4 54
2020-03-21 19:00:00 19.5 9 Sudeste 18 Sudeste 0 1004.1 0 39
2020-03-21 18:00:00 20.7 12 Sudeste 22 Sudeste 0 1003.7 -0.8 38
2020-03-21 17:00:00 21.5 14 Sudeste 24 Este 0 1003.7 -1.5 38
2020-03-21 16:00:00 21.5 14 Sudeste 26 Este 0 1004.1 -1.9 40
2020-03-21 15:00:00 21.5 13 Sudeste 30 Sudeste 0 1004.5 -2.2 39
2020-03-21 14:00:00 20.7 8 Sudeste 22 Sudeste 0 1005.2 -2.1 42
2020-03-21 13:00:00 19.3 15 Sur 30 Sudeste 0 1006 -1.6 44
2020-03-21 12:00:00 18.2 15 Sur 35 Sur 0 1006.7 -0.8 46
2020-03-21 11:00:00 16.3 14 Sudeste 33 Sudeste 0 1007.3 -0.2 52
2020-03-21 10:00:00 15 25 Sudeste 41 Sudeste 0 1007.6 0.2 52
2020-03-21 09:00:00 14.1 20 Este 33 Este 0 1007.5 -0.1 54
2020-03-21 08:00:00 13.5 19 Este 30 Sudeste 0 1007.5 -0.2 53
2020-03-21 07:00:00 13.5 17 Este 32 Este 0 1007.4 -0.1 55
2020-03-21 06:00:00 14.1 19 Este 30 Este 0 1007.6 -0.3 55
2020-03-21 05:00:00 14.2 21 Sudeste 32 Sudeste 0 1007.7 -0.6 57
2020-03-21 04:00:00 14.2 18 Este 30 Este 0 1007.5 -1.3 59
2020-03-21 03:00:00 14.8 20 Este 28 Este 0 1007.9 -1.3 58
2020-03-21 02:00:00 15 18 Este 28 Este 0 1008.3 -1.1 57
2020-03-21 01:00:00 14.9 13 Este 21 Este 0 1008.8 -0.6 58
2020-03-21 00:00:00 15.3 14 Este 26 Sudeste 0 1009.2 -0.2 58
2020-03-20 23:00:00 15.6 13 Sudeste 22 Sudeste 0 1009.4 0.2 57
2020-03-20 22:00:00 16.2 14 Sudeste 26 Sudeste 0 1009.4 0.2 53
2020-03-20 21:00:00 16.5 15 Sudeste 33 Sudeste 0 1009.4 0.5 53
2020-03-20 20:00:00 17.3 17 Sudeste 33 Sur 0 1009.2 0.4 50
2020-03-20 19:00:00 17.6 13 Sudeste 33 Sudeste 0 1009.2 0.3 49
2020-03-20 18:00:00 18.3 21 Sudeste 35 Sudeste 0 1008.9 -0.5 45
2020-03-20 17:00:00 19.8 26 Sudeste 48 Sudeste 0 1008.8 -0.9 42
2020-03-20 16:00:00 20.1 25 Sudeste 46 Sudeste 0 1008.9 -1.3 39
2020-03-20 15:00:00 19.8 29 Sudeste 46 Sudeste 0 1009.4 -1.2 34
2020-03-20 14:00:00 20.2 28 Sudeste 45 Sudeste 0 1009.7 -1.3 31
2020-03-20 13:00:00 19.2 31 Sudeste 45 Sudeste 0 1010.2 -0.9 32
2020-03-20 12:00:00 18.8 8 Sudeste 28 Sur 0 1010.6 -0.4 36
2020-03-20 11:00:00 17.7 15 Sudeste 33 Sudeste 0 1011 0.1 35
2020-03-20 10:00:00 15.8 12 Sudeste 35 Este 0 1011.1 0.4 38
2020-03-20 09:00:00 14.6 21 Este 32 Este 0 1011 0.3 42
2020-03-20 08:00:00 14.1 15 Este 33 Sudeste 0 1010.9 0.4 39
2020-03-20 07:00:00 14 18 Este 35 Sudeste 0 1010.7 0.1 40
2020-03-20 06:00:00 14.6 17 Sudeste 39 Sudeste 0 1010.7 -0.3 40
2020-03-20 05:00:00 14.4 22 Este 33 Este 0 1010.5 -0.7 42
2020-03-20 04:00:00 15.5 15 Sudeste 37 Sudeste 0 1010.6 -0.7 39
2020-03-20 03:00:00 15.9 12 Sudeste 28 Sudeste 0 1011 -0.6 42
2020-03-20 02:00:00 15.8 8 Sur 18 Sudeste 0 1011.2 -0.6 47
2020-03-20 01:00:00 15.9 5 Sudeste 18 Sudeste 0 1011.3 -0.7 51
2020-03-20 00:00:00 15.9 7 Sudeste 17 Sudeste 0 1011.6 -0.2 52
2020-03-19 23:00:00 16.3 9 Sudeste 26 Sudeste 0 1011.8 0 52
2020-03-19 22:00:00 16.7 14 Sudeste 26 Sudeste 0 1012 0.3 48
2020-03-19 21:00:00 16.7 13 Este 28 Este 0 1011.8 0.2 43
2020-03-19 20:00:00 13.3 6 Sudeste 13 Sudeste 0 1011.8 0 85
2020-03-19 19:00:00 13.6 8 Oeste 15 Oeste 0 1011.7 -0.1 90
2020-03-19 18:00:00 15 13 Oeste 21 Oeste 0 1011.6 -0.7 83
2020-03-19 17:00:00 16.6 15 Oeste 28 Oeste 0 1011.8 -1.2 77
2020-03-19 16:00:00 20.6 18 Oeste 26 Oeste 0 1011.8 -2.2 62
2020-03-19 15:00:00 23.6 10 Sur 26 Sudoeste 0 1012.3 -2.5 37
2020-03-19 14:00:00 23.6 13 Sur 28 Sudoeste 0 1013 -2.8 37
2020-03-19 13:00:00 21.8 13 Sudeste 24 Sudeste 0 1014 -2.1 47
2020-03-19 12:00:00 19.7 9 Este 22 Sudeste 0 1014.8 -1.4 56
2020-03-19 11:00:00 16.2 14 Este 26 Sudeste 0 1015.8 -0.4 66
2020-03-19 10:00:00 11.9 14 Este 22 Este 0 1016.1 0 98
2020-03-19 09:00:00 9.3 0 Calma 8 Noroeste 0 1016.2 0.2 99
2020-03-19 08:00:00 8.8 2 Norte 8 Este 0 1016.2 -0.1 99
2020-03-19 07:00:00 9.2 0 Calma 8 Noroeste 0 1016.1 -0.4 99
2020-03-19 06:00:00 9.6 3 Norte 8 Nordeste 0 1016 -0.8 99
2020-03-19 05:00:00 10 0 Calma 9 Oeste 0 1016.3 -0.9 98
2020-03-19 04:00:00 10.2 5 Oeste 13 Oeste 0 1016.5 -1.3 97
2020-03-19 03:00:00 10.8 2 Norte 13 Sudeste 0 1016.8 -1.6 98
2020-03-19 02:00:00 10.3 5 Sudeste 15 Este 0 1017.2 -1.8 99
2020-03-19 01:00:00 10.8 6 Este 11 Este 0 1017.8 -1.5 98
2020-03-19 00:00:00 11.2 6 Este 9 Este 0 1018.4 -1 98
2020-03-18 23:00:00 11.3 0 Calma 9 Noroeste 0 1019 -0.4 97
2020-03-18 22:00:00 11.3 6 Oeste 9 Oeste 0 1019.3 0.1 96
2020-03-18 21:00:00 11.9 4 Oeste 9 Oeste 0 1019.4 0.5 94
2020-03-18 20:00:00 12.3 7 Oeste 13 Oeste 0 1019.4 0.6 93
2020-03-18 19:00:00 13 10 Oeste 18 Oeste 0 1019.2 0 90
2020-03-18 18:00:00 14.1 13 Oeste 18 Oeste 0 1018.9 -0.7 86
2020-03-18 17:00:00 15.6 12 Oeste 18 Oeste 0 1018.8 -1.5 82
2020-03-18 16:00:00 16.5 13 Oeste 21 Oeste 0 1019.2 -2 80
2020-03-18 15:00:00 16.3 13 Oeste 21 Oeste 0 1019.6 -2.4 80
2020-03-18 14:00:00 16.2 13 Oeste 17 Oeste 0 1020.3 -2.1 82
2020-03-18 13:00:00 16.4 10 Oeste 17 Oeste 0 1021.2 -1.4 79
2020-03-18 12:00:00 16.4 4 Norte 9 Oeste 0 1022 -0.7 69
2020-03-18 11:00:00 14.9 5 Oeste 9 Oeste 0 1022.4 -0.3 75
2020-03-18 10:00:00 12.8 0 Calma 8 Sudeste 0 1022.6 0.1 83
2020-03-18 09:00:00 11.3 4 Sudoeste 15 Sudeste 0 1022.7 0.1 87
2020-03-18 08:00:00 9.3 3 Norte 9 Sur 0 1022.7 0.2 94
2020-03-18 07:00:00 9.6 2 Nordeste 8 Sudeste 0 1022.5 -0.3 93
2020-03-18 06:00:00 9.3 6 Este 18 Sudeste 0 1022.6 -0.6 95
2020-03-18 05:00:00 9.4 12 Este 18 Sudeste 0 1022.5 -1.5 95
2020-03-18 04:00:00 9.7 13 Sudeste 24 Este 0 1022.8 -1.4 95
2020-03-18 03:00:00 9.7 18 Sudeste 24 Sudeste 0 1023.2 -1.7 96
2020-03-18 02:00:00 9.3 5 Sudeste 13 Sudeste 0 1024 -1.4 96
2020-03-18 01:00:00 9.1 2 Sudeste 13 Este 0 1024.2 -1.3 96
2020-03-18 00:00:00 9.5 5 Este 11 Este 0 1024.9 -0.6 97
2020-03-17 23:00:00 9.6 5 Este 9 Este 0 1025.4 0.3 97
2020-03-17 22:00:00 10.2 6 Nordeste 8 Nordeste 0 1025.5 0.6 97
2020-03-17 21:00:00 10.9 5 Norte 5 Norte 0 1025.5 0.8 95
2020-03-17 20:00:00 12.1 0 Calma 5 Noroeste 0 1025.1 0.4 91
2020-03-17 19:00:00 12.8 6 Noroeste 9 Noroeste 0 1024.9 0.2 89
2020-03-17 18:00:00 13.1 8 Oeste 11 Oeste 0 1024.7 -0.4 88
2020-03-17 17:00:00 13.5 5 Noroeste 9 Oeste 0 1024.7 -0.8 82
2020-03-17 16:00:00 13.1 4 Oeste 13 Oeste 0 1024.7 -0.9 86
2020-03-17 15:00:00 12.7 8 Oeste 13 Oeste 0 1025.1 -0.5 90
2020-03-17 14:00:00 12.7 8 Oeste 11 Noroeste 0 1025.5 0.1 89
2020-03-17 13:00:00 13 0 Calma 9 Nordeste 0 1025.6 0.5 81
2020-03-17 12:00:00 12.3 6 Este 9 Sudeste 0 1025.6 0.9 86
2020-03-17 11:00:00 11.8 0 Calma 5 Sudoeste 0 1025.4 0.9 96
2020-03-17 10:00:00 11.3 0 Calma 5 Este 0 1025.1 1.2 97
2020-03-17 09:00:00 10.7 4 Este 9 Sudeste 0 1024.7 1.4 98
2020-03-17 08:00:00 10.3 2 Sudeste 5 Este 0 1024.5 2 98
2020-03-17 07:00:00 10.3 3 Noroeste 8 Noroeste 0 1023.9 1.6 98
2020-03-17 06:00:00 10.2 2 Noroeste 9 Oeste 0.2 1023.3 1 97
2020-03-17 05:00:00 10.3 5 Oeste 13 Oeste 0.9 1022.5 0.1 96
2020-03-17 04:00:00 10.7 8 Oeste 11 Oeste 0 1022.3 -0.2 96
2020-03-17 03:00:00 10.5 6 Oeste 11 Sudoeste 0.1 1022.3 0.1 97
2020-03-17 02:00:00 10.3 6 Oeste 13 Oeste 0 1022.4 0.6 96
2020-03-17 01:00:00 10.5 6 Sudoeste 13 Noroeste 0.1 1022.5 1.4 95
2020-03-17 00:00:00 10.8 9 Oeste 22 Norte 0 1022.2 1.8 90
2020-03-16 23:00:00 10.4 6 Noroeste 11 Noroeste 0 1021.8 2 91
2020-03-16 22:00:00 10.5 7 Oeste 15 Norte 0 1021.1 2.3 88
2020-03-16 21:00:00 10.6 12 Norte 28 Norte 0 1020.4 2.4 86
2020-03-16 20:00:00 10.8 11 Norte 30 Norte 0 1019.8 2.2 85
2020-03-16 19:00:00 10.7 13 Norte 33 Norte 0 1018.8 1.5 86
2020-03-16 18:00:00 10.5 15 Norte 24 Norte 0.4 1018 1.3 88
2020-03-16 17:00:00 10.4 17 Norte 32 Norte 0.3 1017.6 1.3 91
2020-03-16 16:00:00 10.6 17 Norte 33 Norte 0.5 1017.3 1.4 90
2020-03-16 15:00:00 10.9 17 Norte 32 Norte 1.5 1016.7 1.3 90
2020-03-16 14:00:00 10.7 13 Noroeste 26 Norte 1.5 1016.3 1.4 92
2020-03-16 13:00:00 10.4 13 Noroeste 28 Norte 1 1015.9 1.5 91
2020-03-16 12:00:00 10 11 Noroeste 22 Oeste 2.1 1015.4 1.9 90
2020-03-16 11:00:00 9.7 13 Norte 30 Norte 2.4 1014.9 2.1 85
2020-03-16 10:00:00 9.4 6 Oeste 15 Norte 3.9 1014.4 2.2 92
2020-03-16 09:00:00 8.8 10 Noroeste 30 Noroeste 3.8 1013.5 1.8 93
2020-03-16 08:00:00 8.3 17 Noroeste 32 Noroeste 2.6 1012.8 1.5 95
2020-03-16 07:00:00 7.6 14 Noroeste 21 Noroeste 1.5 1012.2 1.6 93
2020-03-16 06:00:00 7.4 7 Oeste 24 Oeste 1.5 1011.7 0.8 93
2020-03-16 05:00:00 7.5 14 Oeste 28 Oeste 1.2 1011.3 0.8 91
2020-03-16 04:00:00 7.7 18 Noroeste 26 Oeste 2.1 1010.6 -0.1 91
2020-03-16 03:00:00 8 14 Oeste 22 Oeste 0.4 1010.9 -0.1 87
2020-03-16 02:00:00 8 12 Oeste 24 Oeste 0 1010.5 -0.4 91
2020-03-16 01:00:00 8.2 18 Oeste 32 Oeste 0.6 1010.7 0.7 91
2020-03-16 00:00:00 8.3 14 Oeste 41 Oeste 4.8 1011 1.4 95
2020-03-15 23:00:00 9.2 22 Oeste 35 Noroeste 1 1010.9 1.7 92
2020-03-15 22:00:00 9.1 26 Oeste 50 Oeste 0.4 1010 1.2 89
2020-03-15 21:00:00 9.3 35 Oeste 55 Noroeste 1.1 1009.6 1.8 93
2020-03-15 20:00:00 10.4 4 Sudoeste 13 Sudoeste 5.6 1009.2 1 93
2020-03-15 19:00:00 11.6 12 Noroeste 22 Oeste 1.1 1008.8 0.6 85
2020-03-15 18:00:00 13.2 10 Noroeste 21 Noroeste 0 1007.8 0.1 69
2020-03-15 17:00:00 13.7 19 Noroeste 30 Noroeste 0 1008.2 -0.1 70
2020-03-15 16:00:00 14.1 19 Noroeste 35 Noroeste 0 1008.2 -0.5 69
2020-03-15 15:00:00 14.1 23 Noroeste 37 Noroeste 0 1007.7 -1 73
2020-03-15 14:00:00 14.7 22 Noroeste 37 Oeste 0 1008.3 -0.5 73
2020-03-15 13:00:00 15.1 19 Noroeste 30 Oeste 0 1008.7 -0.1 72
2020-03-15 12:00:00 15.8 17 Oeste 26 Noroeste 0 1008.7 0.3 65
2020-03-15 11:00:00 16.9 16 Oeste 24 Noroeste 0 1008.8 0.4 52
2020-03-15 10:00:00 16.8 9 Sudoeste 32 Sur 0 1008.8 0.5 39
2020-03-15 09:00:00 15.3 19 Sur 42 Sudeste 0 1008.4 -0.6 40
2020-03-15 08:00:00 11.6 9 Sur 30 Este 0 1008.4 -1.2 52
2020-03-15 07:00:00 9 20 Este 30 Sudeste 0 1008.3 -2.3 68
2020-03-15 06:00:00 6.2 9 Nordeste 17 Sudeste 0 1009 -2.7 82
2020-03-15 05:00:00 6.6 9 Sudeste 17 Este 0 1009.6 -3.2 82
2020-03-15 04:00:00 5.8 5 Nordeste 9 Este 0 1010.6 -3.2 85
2020-03-15 03:00:00 6.2 2 Este 11 Nordeste 0 1011.7 -3.1 88
2020-03-15 02:00:00 6.1 6 Este 13 Sudeste 0 1012.8 -2.9 89
2020-03-15 01:00:00 6.2 9 Sudeste 15 Sudeste 0 1013.8 -2.7 89
2020-03-15 00:00:00 6.2 9 Sudeste 11 Sudeste 0 1014.8 -1.8 87
2020-03-14 23:00:00 7.1 5 Este 17 Este 0 1015.7 -1.1 85
2020-03-14 22:00:00 8.1 6 Este 13 Nordeste 0 1016.5 -0.3 80
2020-03-14 21:00:00 9.6 7 Este 13 Nordeste 0 1016.6 -0.3 73
2020-03-14 20:00:00 11.1 6 Nordeste 11 Sudeste 0 1016.8 -0.4 67
2020-03-14 19:00:00 13.1 10 Este 21 Nordeste 0 1016.8 -0.8 60
2020-03-14 18:00:00 14.8 9 Nordeste 22 Norte 0 1016.9 -1.3 57
2020-03-14 17:00:00 15.7 13 Norte 24 Norte 0 1017.2 -2.1 53
2020-03-14 16:00:00 15.8 6 Sudeste 18 Norte 0 1017.6 -2.4 52
2020-03-14 15:00:00 15.4 7 Oeste 18 Nordeste 0 1018.2 -2.3 51
2020-03-14 14:00:00 14 8 Norte 21 Norte 0 1019.3 -1.7 57
2020-03-14 13:00:00 13.5 9 Noroeste 18 Noroeste 0 1020 -0.9 59
2020-03-14 12:00:00 13.4 6 Oeste 15 Oeste 0 1020.5 -0.1 62
2020-03-14 11:00:00 11.3 4 Este 13 Este 0 1021 0.8 68
2020-03-14 10:00:00 8.2 9 Este 18 Este 0 1020.9 1 78
2020-03-14 09:00:00 4.7 8 Este 11 Este 0 1020.6 1.1 90
2020-03-14 08:00:00 2.3 9 Este 18 Nordeste 0 1020.2 0.9 95
2020-03-14 07:00:00 2 7 Este 11 Este 0 1019.9 0.4 95
2020-03-14 06:00:00 2.3 5 Este 8 Sudeste 0 1019.5 -0.6 95
2020-03-14 05:00:00 2.3 7 Este 9 Este 0 1019.3 -1 95
2020-03-14 04:00:00 2.6 7 Este 13 Este 0 1019.5 -1 94
2020-03-14 03:00:00 2.8 9 Este 11 Este 0 1020.1 -0.1 94
2020-03-14 02:00:00 3.4 9 Este 11 Este 0 1020.3 -0.1 93
2020-03-14 01:00:00 4.3 7 Este 13 Este 0 1020.5 0.6 90
2020-03-14 00:00:00 4.3 8 Este 11 Este 0 1020.2 0.4 90
2020-03-13 23:00:00 5.4 8 Este 15 Este 0 1020.4 1.5 85
2020-03-13 22:00:00 6 8 Sudeste 11 Este 0 1019.9 1 84
2020-03-13 21:00:00 7.9 2 Sudeste 11 Nordeste 0 1019.8 0.9 73
2020-03-13 20:00:00 9 8 Este 17 Este 0 1018.9 -0.2 70
2020-03-13 19:00:00 11 10 Nordeste 22 Norte 0 1018.9 -0.5 60
2020-03-13 18:00:00 12.1 14 Nordeste 22 Nordeste 0 1018.9 -0.7 57
2020-03-13 17:00:00 13.1 13 Nordeste 24 Nordeste 0 1019.1 -1 54
2020-03-13 16:00:00 13.5 14 Nordeste 28 Nordeste 0 1019.4 -1.3 56
2020-03-13 15:00:00 14 10 Este 28 Nordeste 0 1019.6 -1.3 54
2020-03-13 14:00:00 13.6 12 Nordeste 28 Nordeste 0 1020.1 -1 53
2020-03-13 13:00:00 12.3 11 Nordeste 28 Norte 0 1020.7 -0.5 59
2020-03-13 12:00:00 12.6 12 Nordeste 26 Este 0 1020.9 -0.1 65
2020-03-13 11:00:00 11 12 Nordeste 22 Nordeste 0 1021.1 0.3 83
2020-03-13 10:00:00 10.4 6 Este 13 Este 0 1021.2 0.3 89
2020-03-13 09:00:00 10.4 5 Oeste 5 Oeste 0 1021 0.1 94
2020-03-13 08:00:00 10.2 3 Oeste 9 Norte 0 1020.8 0.1 91
2020-03-13 07:00:00 9.8 0 Calma 11 Noroeste 0 1020.9 0.2 94
2020-03-13 06:00:00 9.9 4 Oeste 9 Oeste 0 1020.9 -0.1 96
2020-03-13 05:00:00 10.1 3 Oeste 8 Oeste 0 1020.7 -0.6 96
2020-03-13 04:00:00 10.2 4 Oeste 5 Oeste 0 1020.7 -0.6 97
2020-03-13 03:00:00 10.1 4 Oeste 8 Oeste 0.1 1021 -0.4 96
2020-03-13 02:00:00 10.4 4 Noroeste 9 Este 0.3 1021.3 0 95
2020-03-13 01:00:00 10.6 3 Oeste 9 Oeste 0 1021.3 0.3 96
2020-03-13 00:00:00 10.6 0 Calma 11 Norte 0.3 1021.4 0.8 96
2020-03-12 23:00:00 10.6 5 Norte 13 Oeste 0.2 1021.3 1 97
2020-03-12 22:00:00 10.8 7 Oeste 13 Oeste 0.6 1021 1.5 97
2020-03-12 21:00:00 11.3 8 Oeste 13 Oeste 0 1020.6 1.5 95
2020-03-12 20:00:00 11.3 8 Oeste 22 Norte 0 1020.3 1.6 91
2020-03-12 19:00:00 11.6 13 Norte 24 Norte 0.3 1019.5 0.9 93
2020-03-12 18:00:00 13.1 13 Noroeste 18 Norte 0.1 1019.1 0.3 88
2020-03-12 17:00:00 13.5 13 Noroeste 24 Norte 0 1018.7 -0.2 81
2020-03-12 16:00:00 14 8 Noroeste 17 Noroeste 0 1018.6 -0.9 83
2020-03-12 15:00:00 14.6 11 Noroeste 17 Noroeste 0 1018.8 -1 78
2020-03-12 14:00:00 15.1 6 Norte 18 Nordeste 0 1018.9 -0.8 73
2020-03-12 13:00:00 14.7 0 Calma 8 Norte 0 1019.5 -0.3 77
2020-03-12 12:00:00 13.9 0 Calma 11 Nordeste 0 1019.8 0.4 84
2020-03-12 11:00:00 13.1 6 Este 11 Nordeste 0 1019.7 0.6 88
2020-03-12 10:00:00 12.3 9 Este 13 Este 0 1019.8 1 92
2020-03-12 09:00:00 11.9 8 Este 13 Sudeste 0 1019.4 0.6 94
2020-03-12 08:00:00 11.3 8 Sudeste 15 Sudeste 0 1019.1 0.5 96
2020-03-12 07:00:00 11.3 10 Este 13 Este 0 1018.8 0.3 96
2020-03-12 06:00:00 11.3 8 Este 11 Sudeste 0 1018.8 0.1 95
2020-03-12 05:00:00 11.4 5 Este 8 Este 0 1018.6 -0.3 95
2020-03-12 04:00:00 11.3 3 Nordeste 5 Norte 0 1018.5 -0.5 95
2020-03-12 03:00:00 11.2 0 Calma 4 Nordeste 0 1018.7 -0.1 94
2020-03-12 02:00:00 10.7 4 Sudeste 5 Este 0 1018.9 0.1 95
2020-03-12 01:00:00 10.4 0 Calma 5 Sudoeste 0 1019 0.5 94
2020-03-12 00:00:00 10.8 3 Este 11 Nordeste 0 1018.8 0.2 93
2020-03-11 23:00:00 11.4 7 Nordeste 11 Norte 0 1018.8 0.4 92
2020-03-11 22:00:00 11.9 2 Nordeste 11 Norte 0 1018.5 0.9 90
2020-03-11 21:00:00 12.4 9 Oeste 21 Oeste 0 1018.6 1.8 89
2020-03-11 20:00:00 12.6 14 Oeste 26 Noroeste 0 1018.4 2 89
2020-03-11 19:00:00 13.3 17 Oeste 28 Oeste 0 1017.6 1 85
2020-03-11 18:00:00 15.3 18 Oeste 28 Oeste 0 1016.8 -0.2 74
2020-03-11 17:00:00 17.4 17 Oeste 26 Oeste 0 1016.4 -1.5 67
2020-03-11 16:00:00 18 18 Oeste 26 Oeste 0 1016.6 -2.3 66
2020-03-11 15:00:00 18.7 16 Oeste 24 Oeste 0 1017 -2.8 65
2020-03-11 14:00:00 19.2 8 Oeste 18 Oeste -- 1017.9 -2.5 67
2020-03-11 13:00:00 18.7 6 Oeste 13 Noroeste -- 1018.9 -2 64
2020-03-11 12:00:00 16.9 3 Este 11 Sur -- 1019.8 -1.5 65
2020-03-11 11:00:00 14.1 4 Sudeste 11 Sudeste 0 1020.4 -0.9 75
2020-03-11 10:00:00 10.6 9 Este 21 Este 0 1020.9 -0.3 89
2020-03-11 09:00:00 7.5 8 Este 17 Este 0 1021.3 0 98
2020-03-11 08:00:00 5.8 9 Este 15 Este 0 1021.3 0 98
2020-03-11 07:00:00 5.7 7 Este 11 Este 0 1021.2 -0.3 98
2020-03-11 06:00:00 6 8 Este 11 Este 0 1021.3 -0.6 98
2020-03-11 05:00:00 6.3 9 Este 13 Este 0 1021.3 -1.2 98
2020-03-11 04:00:00 6.4 12 Este 13 Este 0 1021.5 -1.4 97
2020-03-11 03:00:00 6.7 5 Este 13 Este 0 1021.9 -1.2 97
2020-03-11 02:00:00 7 7 Este 9 Este 0 1022.5 -0.8 96
2020-03-11 01:00:00 7.4 8 Este 11 Este 0 1022.9 0.1 96
2020-03-11 00:00:00 7.5 9 Este 11 Sudeste 0 1023.1 0.5 94
2020-03-10 23:00:00 8.8 0 Calma 5 Sudeste 0 1023.3 1.2 94
2020-03-10 22:00:00 9.3 5 Nordeste 11 Nordeste 0 1022.8 0.8 92
2020-03-10 21:00:00 10.2 6 Sudeste 9 Sudeste 0 1022.6 0.6 88
2020-03-10 20:00:00 11.9 0 Calma 8 Oeste 0 1022.1 0 82
2020-03-10 19:00:00 13.5 5 Oeste 13 Oeste 0 1022 0.1 75
2020-03-10 18:00:00 14.5 8 Oeste 21 Oeste 0 1022 0.4 70
2020-03-10 17:00:00 14.7 12 Noroeste 21 Norte 0 1022.1 0.2 71
2020-03-10 16:00:00 14.8 13 Norte 24 Norte 0 1021.9 -0.5 70
2020-03-10 15:00:00 15.7 11 Norte 21 Norte 0 1021.6 -1.1 69
2020-03-10 14:00:00 15.1 12 Noroeste 24 Oeste 0 1021.9 -0.6 71
2020-03-10 13:00:00 15 6 Oeste 17 Oeste 0 1022.4 0 63
2020-03-10 12:00:00 13 4 Oeste 9 Oeste 0 1022.7 0.6 69
2020-03-10 11:00:00 11.3 3 Sudeste 11 Este 0 1022.5 0.4 77
2020-03-10 10:00:00 9.1 8 Este 13 Sudeste 0 1022.4 0.4 87
2020-03-10 09:00:00 6.7 7 Este 13 Nordeste 0 1022.1 0 96
2020-03-10 08:00:00 5.8 5 Este 11 Este 0 1022.1 0 95
2020-03-10 07:00:00 6.2 3 Este 8 Este 0 1022 -0.4 96
2020-03-10 06:00:00 6.2 4 Nordeste 9 Este 0 1022.1 -0.8 97
2020-03-10 05:00:00 6.2 4 Este 8 Este 0 1022.1 -1.1 97
2020-03-10 04:00:00 6.7 4 Este 5 Este 0 1022.4 -1 97
2020-03-10 03:00:00 6.9 5 Este 9 Este 0 1022.9 -0.6 97
2020-03-10 02:00:00 7 6 Este 8 Este 0 1023.2 -0.8 97
2020-03-10 01:00:00 7.1 5 Este 9 Este 0 1023.4 -0.9 97
2020-03-10 00:00:00 7.6 6 Este 9 Este 0 1023.5 -1.1 96